createdAt,value
2023-05-14T00:00:01.052Z,24.60
2023-05-14T00:02:30.284Z,24.60
2023-05-14T00:04:58.170Z,24.60
2023-05-14T00:07:30.742Z,24.60
2023-05-14T00:09:59.057Z,24.60
2023-05-14T00:12:27.568Z,24.60
2023-05-14T00:14:55.560Z,24.60
2023-05-14T00:17:23.422Z,24.60
2023-05-14T00:19:52.623Z,24.60
2023-05-14T00:22:20.525Z,24.60
2023-05-14T00:24:48.310Z,24.60
2023-05-14T00:27:16.070Z,24.60
2023-05-14T00:29:45.548Z,24.60
2023-05-14T00:32:13.329Z,24.60
2023-05-14T00:34:41.284Z,24.60
2023-05-14T00:37:10.411Z,24.60
2023-05-14T00:39:38.230Z,24.60
2023-05-14T00:42:06.336Z,24.60
2023-05-14T00:44:34.143Z,24.60
2023-05-14T00:47:02.079Z,24.60
2023-05-14T00:49:30.552Z,24.60
2023-05-14T00:52:00.390Z,24.60
2023-05-14T00:54:30.509Z,24.60
2023-05-14T00:56:58.648Z,24.60
2023-05-14T00:59:27.009Z,24.60
2023-05-14T01:01:55.147Z,24.60
2023-05-14T01:04:23.070Z,24.60
2023-05-14T01:07:00.274Z,24.60
2023-05-14T01:09:49.035Z,24.60
2023-05-14T01:12:22.436Z,24.60
2023-05-14T01:14:56.585Z,24.60
2023-05-14T01:17:29.246Z,24.60
2023-05-14T01:19:58.632Z,24.60
2023-05-14T01:22:27.750Z,24.60
2023-05-14T01:24:55.801Z,24.60
2023-05-14T01:27:27.156Z,24.60
2023-05-14T01:30:10.752Z,24.60
2023-05-14T01:32:40.356Z,24.60
2023-05-14T01:35:10.589Z,24.50
2023-05-14T01:37:41.747Z,24.60
2023-05-14T01:40:14.003Z,24.50
2023-05-14T01:42:43.224Z,24.60
2023-05-14T01:45:11.793Z,24.50
2023-05-14T01:47:39.652Z,24.50
2023-05-14T01:50:08.278Z,24.50
2023-05-14T01:52:36.049Z,24.50
2023-05-14T01:55:06.062Z,24.50
2023-05-14T01:57:33.900Z,24.50
2023-05-14T02:00:03.901Z,24.50
2023-05-14T02:02:41.650Z,24.50
2023-05-14T02:05:13.548Z,24.50
2023-05-14T02:07:41.395Z,24.50
2023-05-14T02:10:11.967Z,24.50
2023-05-14T02:12:39.740Z,24.50
2023-05-14T02:15:10.881Z,24.50
2023-05-14T02:17:38.853Z,24.50
2023-05-14T02:20:08.514Z,24.50
2023-05-14T02:22:36.415Z,24.50
2023-05-14T02:25:04.796Z,24.50
2023-05-14T02:27:33.939Z,24.50
2023-05-14T02:30:01.865Z,24.50
2023-05-14T02:32:29.795Z,24.50
2023-05-14T02:34:57.604Z,24.50
2023-05-14T02:37:25.517Z,24.50
2023-05-14T02:39:53.307Z,24.50
2023-05-14T02:42:23.716Z,24.50
2023-05-14T02:44:54.011Z,24.50
2023-05-14T02:47:21.845Z,24.50
2023-05-14T02:49:49.905Z,24.50
2023-05-14T02:52:17.672Z,24.50
2023-05-14T02:54:45.451Z,24.50
2023-05-14T02:57:13.484Z,24.50
2023-05-14T02:59:41.431Z,24.50
2023-05-14T03:02:11.047Z,24.50
2023-05-14T03:04:39.441Z,24.50
2023-05-14T03:07:07.251Z,24.50
2023-05-14T03:09:37.384Z,24.50
2023-05-14T03:12:06.644Z,24.50
2023-05-14T03:14:34.456Z,24.50
2023-05-14T03:17:03.952Z,24.50
2023-05-14T03:19:33.328Z,24.50
2023-05-14T03:22:01.150Z,24.50
2023-05-14T03:24:28.937Z,24.50
2023-05-14T03:26:56.718Z,24.50
2023-05-14T03:29:24.553Z,24.50
2023-05-14T03:31:52.909Z,24.50
2023-05-14T03:34:20.726Z,24.50
2023-05-14T03:36:49.926Z,24.50
2023-05-14T03:39:19.917Z,24.50
2023-05-14T03:41:47.807Z,24.50
2023-05-14T03:44:15.806Z,24.50
2023-05-14T03:46:43.570Z,24.50
2023-05-14T03:49:11.466Z,24.50
2023-05-14T03:51:39.677Z,24.40
2023-05-14T03:54:08.889Z,24.40
2023-05-14T03:56:36.871Z,24.50
2023-05-14T03:59:04.732Z,24.50
2023-05-14T04:01:33.332Z,24.50
2023-05-14T04:04:01.215Z,24.40
2023-05-14T04:06:29.101Z,24.50
2023-05-14T04:08:56.867Z,24.40
2023-05-14T04:11:26.154Z,24.40
2023-05-14T04:13:53.927Z,24.40
2023-05-14T04:16:21.786Z,24.40
2023-05-14T04:18:49.641Z,24.50
2023-05-14T04:21:17.494Z,24.40
2023-05-14T04:23:45.304Z,24.50
2023-05-14T04:26:13.137Z,24.40
2023-05-14T04:28:42.211Z,24.40
2023-05-14T04:31:10.051Z,24.40
2023-05-14T04:33:37.839Z,24.50
2023-05-14T04:36:06.396Z,24.40
2023-05-14T04:38:34.179Z,24.40
2023-05-14T04:41:02.098Z,24.40
2023-05-14T04:43:29.874Z,24.40
2023-05-14T04:45:59.060Z,24.40
2023-05-14T04:48:26.953Z,24.40
2023-05-14T04:50:54.768Z,24.40
2023-05-14T04:53:22.561Z,24.40
2023-05-14T04:55:50.350Z,24.40
2023-05-14T04:58:18.131Z,24.40
2023-05-14T05:00:45.958Z,24.40
2023-05-14T05:03:15.436Z,24.40
2023-05-14T05:05:43.396Z,24.50
2023-05-14T05:08:11.631Z,24.40
2023-05-14T05:10:39.668Z,24.50
2023-05-14T05:13:07.448Z,24.40
2023-05-14T05:15:35.367Z,24.50
2023-05-14T05:18:03.259Z,24.50
2023-05-14T05:20:32.480Z,24.40
2023-05-14T05:23:00.450Z,24.50
2023-05-14T05:25:28.449Z,24.50
2023-05-14T05:27:56.691Z,24.50
2023-05-14T05:30:24.584Z,24.50
2023-05-14T05:32:52.584Z,24.50
2023-05-14T05:35:20.544Z,24.50
2023-05-14T05:37:49.706Z,24.50
2023-05-14T05:40:17.610Z,24.50
2023-05-14T05:42:45.398Z,24.50
2023-05-14T05:45:13.175Z,24.50
2023-05-14T05:47:41.068Z,24.50
2023-05-14T05:50:09.992Z,24.50
2023-05-14T05:52:37.911Z,24.50
2023-05-14T05:55:07.862Z,24.50
2023-05-14T05:57:35.697Z,24.50
2023-05-14T06:00:12.790Z,24.50
2023-05-14T06:02:40.984Z,24.50
2023-05-14T06:05:10.080Z,24.50
2023-05-14T06:07:37.980Z,24.50
2023-05-14T06:10:08.424Z,24.50
2023-05-14T06:12:36.223Z,24.50
2023-05-14T06:15:04.337Z,24.60
2023-05-14T06:17:32.188Z,24.50
2023-05-14T06:19:59.990Z,24.50
2023-05-14T06:22:27.747Z,24.60
2023-05-14T06:24:55.563Z,24.60
2023-05-14T06:27:24.677Z,24.60
2023-05-14T06:29:52.476Z,24.60
2023-05-14T06:32:20.344Z,24.60
2023-05-14T06:34:48.455Z,24.60
2023-05-14T06:37:16.212Z,24.70
2023-05-14T06:39:49.876Z,24.70
2023-05-14T06:42:18.197Z,24.70
2023-05-14T06:44:47.288Z,24.70
2023-05-14T06:47:15.029Z,24.70
2023-05-14T06:49:42.826Z,24.70
2023-05-14T06:52:10.595Z,24.70
2023-05-14T06:54:39.313Z,24.70
2023-05-14T06:57:07.374Z,24.70
2023-05-14T06:59:35.848Z,24.70
2023-05-14T07:02:04.930Z,24.70
2023-05-14T07:04:32.858Z,24.60
2023-05-14T07:07:00.715Z,24.60
2023-05-14T07:09:28.607Z,24.60
2023-05-14T07:11:56.393Z,24.60
2023-05-14T07:14:24.231Z,24.60
2023-05-14T07:16:52.051Z,24.60
2023-05-14T07:19:22.233Z,24.60
2023-05-14T07:21:50.052Z,24.60
2023-05-14T07:24:17.813Z,24.60
2023-05-14T07:26:45.763Z,24.60
2023-05-14T07:29:13.541Z,24.60
2023-05-14T07:31:41.309Z,24.60
2023-05-14T07:34:10.890Z,24.60
2023-05-14T07:36:41.089Z,24.60
2023-05-14T07:39:09.004Z,24.60
2023-05-14T07:41:36.810Z,24.60
2023-05-14T07:44:04.965Z,24.60
2023-05-14T07:46:32.747Z,24.60
2023-05-14T07:49:00.562Z,24.60
2023-05-14T07:51:28.502Z,24.60
2023-05-14T07:53:57.670Z,24.60
2023-05-14T07:56:25.605Z,24.60
2023-05-14T07:58:53.384Z,24.60
2023-05-14T08:01:21.158Z,24.60
2023-05-14T08:03:49.099Z,24.60
2023-05-14T08:06:17.012Z,24.60
2023-05-14T08:08:44.843Z,24.60
2023-05-14T08:11:13.953Z,24.60
2023-05-14T08:13:41.882Z,24.60
2023-05-14T08:16:09.767Z,24.60
2023-05-14T08:18:37.640Z,24.60
2023-05-14T08:21:06.109Z,24.60
2023-05-14T08:23:33.962Z,24.60
2023-05-14T08:26:01.706Z,24.60
2023-05-14T08:28:30.819Z,24.70
2023-05-14T08:30:58.620Z,24.60
2023-05-14T08:33:26.406Z,24.60
2023-05-14T08:35:54.527Z,24.60
2023-05-14T08:38:22.367Z,24.70
2023-05-14T08:40:54.852Z,24.70
2023-05-14T08:43:27.637Z,24.70
2023-05-14T08:46:01.506Z,24.70
2023-05-14T08:48:33.642Z,24.70
2023-05-14T08:51:02.608Z,24.70
2023-05-14T08:53:31.114Z,24.70
2023-05-14T08:56:02.024Z,24.70
2023-05-14T08:58:29.981Z,24.70
2023-05-14T09:00:59.290Z,24.70
2023-05-14T09:03:27.660Z,24.70
2023-05-14T09:05:57.965Z,24.70
2023-05-14T09:08:27.211Z,24.70
2023-05-14T09:10:54.989Z,24.70
2023-05-14T09:13:22.798Z,24.70
2023-05-14T09:15:51.658Z,24.80
2023-05-14T09:18:21.243Z,24.80
2023-05-14T09:20:49.079Z,24.80
2023-05-14T09:23:16.854Z,24.80
2023-05-14T09:25:44.620Z,24.80
2023-05-14T09:28:12.543Z,24.80
2023-05-14T09:30:40.530Z,24.90
2023-05-14T09:33:10.339Z,24.90
2023-05-14T09:35:43.237Z,24.90
2023-05-14T09:38:11.027Z,24.90
2023-05-14T09:40:39.081Z,24.90
2023-05-14T09:43:06.837Z,24.90
2023-05-14T09:45:36.139Z,24.90
2023-05-14T09:48:04.812Z,25.00
2023-05-14T09:50:32.748Z,25.00
2023-05-14T09:53:01.935Z,25.00
2023-05-14T09:55:30.145Z,24.90
2023-05-14T09:57:57.922Z,24.90
2023-05-14T10:00:26.199Z,24.90
2023-05-14T10:02:56.012Z,24.90
2023-05-14T10:05:25.004Z,24.90
2023-05-14T10:07:55.301Z,24.90
2023-05-14T10:10:29.316Z,24.90
2023-05-14T10:12:59.696Z,24.90
2023-05-14T10:15:34.656Z,24.90
2023-05-14T10:18:07.990Z,24.90
2023-05-14T10:20:37.634Z,24.90
2023-05-14T10:23:07.397Z,24.90
2023-05-14T10:25:37.419Z,24.90
2023-05-14T10:28:06.779Z,24.90
2023-05-14T10:30:34.635Z,24.90
2023-05-14T10:33:09.992Z,24.90
2023-05-14T10:35:57.497Z,24.90
2023-05-14T10:38:28.006Z,25.00
2023-05-14T10:40:59.727Z,25.00
2023-05-14T10:43:29.273Z,25.00
2023-05-14T10:45:57.295Z,25.00
2023-05-14T10:48:25.690Z,25.00
2023-05-14T10:50:54.534Z,25.00
2023-05-14T10:53:32.641Z,25.00
2023-05-14T10:56:05.781Z,25.00
2023-05-14T10:58:36.914Z,25.00
2023-05-14T11:01:06.004Z,25.00
2023-05-14T11:03:40.516Z,25.00
2023-05-14T11:06:09.895Z,25.00
2023-05-14T11:08:38.447Z,25.00
2023-05-14T11:11:08.262Z,25.00
2023-05-14T11:13:36.323Z,25.10
2023-05-14T11:16:15.590Z,25.10
2023-05-14T11:18:54.633Z,25.10
2023-05-14T11:21:22.504Z,25.10
2023-05-14T11:23:50.459Z,25.10
2023-05-14T11:26:21.675Z,25.10
2023-05-14T11:28:49.726Z,25.10
2023-05-14T11:31:17.567Z,25.10
2023-05-14T11:33:45.588Z,25.10
2023-05-14T11:36:13.842Z,25.10
2023-05-14T11:38:48.738Z,25.10
2023-05-14T11:41:16.629Z,25.10
2023-05-14T11:43:45.885Z,25.10
2023-05-14T11:46:18.579Z,25.10
2023-05-14T11:48:46.674Z,25.10
2023-05-14T11:51:14.470Z,25.10
2023-05-14T11:53:42.296Z,25.10
2023-05-14T11:56:11.080Z,25.10
2023-05-14T11:58:38.885Z,25.20
2023-05-14T12:01:08.163Z,25.20
2023-05-14T12:03:36.665Z,25.20
2023-05-14T12:06:08.093Z,25.20
2023-05-14T12:08:36.211Z,25.20
2023-05-14T12:11:04.115Z,25.20
2023-05-14T12:13:32.802Z,25.20
2023-05-14T12:16:02.062Z,25.20
2023-05-14T12:18:32.898Z,25.20
2023-05-14T12:21:04.076Z,25.20
2023-05-14T12:23:32.631Z,25.20
2023-05-14T12:26:04.142Z,25.20
2023-05-14T12:28:32.198Z,25.20
2023-05-14T12:31:00.484Z,25.20
2023-05-14T12:33:28.510Z,25.20
2023-05-14T12:36:10.067Z,25.20
2023-05-14T12:38:47.998Z,25.20
2023-05-14T12:41:16.484Z,25.20
2023-05-14T12:43:45.407Z,25.20
2023-05-14T12:46:13.151Z,25.20
2023-05-14T12:48:40.944Z,25.20
2023-05-14T12:51:10.054Z,25.20
2023-05-14T12:53:37.828Z,25.20
2023-05-14T12:56:06.563Z,25.20
2023-05-14T12:58:34.479Z,25.20
2023-05-14T13:01:02.386Z,25.20
2023-05-14T13:03:30.509Z,25.20
2023-05-14T13:05:58.377Z,25.20
2023-05-14T13:08:27.493Z,25.30
2023-05-14T13:10:56.213Z,25.30
2023-05-14T13:13:24.535Z,25.30
2023-05-14T13:15:52.338Z,25.30
2023-05-14T13:18:20.302Z,25.30
2023-05-14T13:20:48.389Z,25.30
2023-05-14T13:23:16.334Z,25.30
2023-05-14T13:25:46.528Z,25.30
2023-05-14T13:28:15.855Z,25.30
2023-05-14T13:31:03.628Z,25.30
2023-05-14T13:33:31.444Z,25.30
2023-05-14T13:35:59.210Z,25.30
2023-05-14T13:38:26.978Z,25.40
2023-05-14T13:40:57.302Z,25.40
2023-05-14T13:43:25.073Z,25.40
2023-05-14T13:45:52.875Z,25.40
2023-05-14T13:48:20.712Z,25.40
2023-05-14T13:50:48.470Z,25.40
2023-05-14T13:53:16.262Z,25.40
2023-05-14T13:55:45.030Z,25.40
2023-05-14T13:58:15.235Z,25.40
2023-05-14T14:00:43.064Z,25.40
2023-05-14T14:03:10.880Z,25.40
2023-05-14T14:05:38.977Z,25.50
2023-05-14T14:08:22.116Z,25.50
2023-05-14T14:10:51.806Z,25.40
2023-05-14T14:13:21.141Z,25.50
2023-05-14T14:15:49.138Z,25.50
2023-05-14T14:18:16.977Z,25.50
2023-05-14T14:20:44.986Z,25.50
2023-05-14T14:23:12.810Z,25.50
2023-05-14T14:25:40.651Z,25.50
2023-05-14T14:28:08.448Z,25.50
2023-05-14T14:30:37.572Z,25.50
2023-05-14T14:33:05.505Z,25.50
2023-05-14T14:35:35.216Z,25.40
2023-05-14T14:38:03.070Z,25.40
2023-05-14T14:40:30.914Z,25.40
2023-05-14T14:42:58.685Z,25.40
2023-05-14T14:45:26.488Z,25.40
2023-05-14T14:48:27.473Z,25.40
2023-05-14T14:50:56.001Z,25.50
2023-05-14T14:53:25.024Z,25.40
2023-05-14T14:55:53.284Z,25.50
2023-05-14T14:58:21.904Z,25.50
2023-05-14T15:00:50.961Z,25.50
2023-05-14T15:03:19.252Z,25.50
2023-05-14T15:05:48.595Z,25.50
2023-05-14T15:08:16.574Z,25.50
2023-05-14T15:10:45.790Z,25.50
2023-05-14T15:13:13.796Z,25.50
2023-05-14T15:15:41.569Z,25.50
2023-05-14T15:18:10.013Z,25.60
2023-05-14T15:20:38.467Z,25.60
2023-05-14T15:23:07.730Z,25.60
2023-05-14T15:25:35.792Z,25.60
2023-05-14T15:28:03.753Z,25.60
2023-05-14T15:30:31.635Z,25.60
2023-05-14T15:32:59.487Z,25.60
2023-05-14T15:35:27.265Z,25.70
2023-05-14T15:37:56.984Z,25.70
2023-05-14T15:40:27.879Z,25.70
2023-05-14T15:42:55.833Z,25.70
2023-05-14T15:45:23.679Z,25.70
2023-05-14T15:47:51.461Z,25.80
2023-05-14T15:50:19.490Z,25.80
2023-05-14T15:52:47.420Z,25.80
2023-05-14T15:55:15.422Z,25.80
2023-05-14T15:57:44.864Z,25.80
2023-05-14T16:00:14.340Z,25.80
2023-05-14T16:02:42.646Z,25.80
2023-05-14T16:05:10.813Z,25.80
2023-05-14T16:07:39.088Z,25.80
2023-05-14T16:10:07.987Z,25.80
2023-05-14T16:12:36.325Z,25.80
2023-05-14T16:15:07.247Z,25.80
2023-05-14T16:17:35.776Z,25.80
2023-05-14T16:20:04.887Z,25.80
2023-05-14T16:22:34.610Z,25.70
2023-05-14T16:25:03.521Z,25.70
2023-05-14T16:27:31.739Z,25.70
2023-05-14T16:29:59.507Z,25.60
2023-05-14T16:32:28.645Z,25.60
2023-05-14T16:34:56.498Z,25.60
2023-05-14T16:37:24.587Z,25.60
2023-05-14T16:39:52.491Z,25.60
2023-05-14T16:42:20.275Z,25.60
2023-05-14T16:44:48.072Z,25.60
2023-05-14T16:47:16.147Z,25.70
2023-05-14T16:49:45.285Z,25.70
2023-05-14T16:52:13.047Z,25.70
2023-05-14T16:54:40.816Z,25.70
2023-05-14T16:57:08.619Z,25.70
2023-05-14T16:59:36.419Z,25.70
2023-05-14T17:02:04.529Z,25.70
2023-05-14T17:04:33.342Z,25.70
2023-05-14T17:07:03.452Z,25.70
2023-05-14T17:09:31.263Z,25.80
2023-05-14T17:11:59.065Z,25.80
2023-05-14T17:14:27.898Z,25.70
2023-05-14T17:16:55.794Z,25.80
2023-05-14T17:19:23.724Z,25.70
2023-05-14T17:21:51.537Z,25.70
2023-05-14T17:24:20.689Z,25.70
2023-05-14T17:26:48.648Z,25.70
2023-05-14T17:29:16.503Z,25.70
2023-05-14T17:31:44.366Z,25.70
2023-05-14T17:34:12.168Z,25.70
2023-05-14T17:36:39.990Z,25.60
2023-05-14T17:39:07.729Z,25.60
2023-05-14T17:41:36.899Z,25.60
2023-05-14T17:44:04.850Z,25.60
2023-05-14T17:46:33.627Z,25.60
2023-05-14T17:49:01.534Z,25.60
2023-05-14T17:51:29.356Z,25.60
2023-05-14T17:53:57.195Z,25.50
2023-05-14T17:56:25.062Z,25.50
2023-05-14T17:58:54.287Z,25.50
2023-05-14T18:01:22.105Z,25.50
2023-05-14T18:03:50.109Z,25.50
2023-05-14T18:06:17.982Z,25.50
2023-05-14T18:08:45.805Z,25.40
2023-05-14T18:11:13.581Z,25.50
2023-05-14T18:13:41.376Z,25.40
2023-05-14T18:16:10.556Z,25.40
2023-05-14T18:18:38.395Z,25.40
2023-05-14T18:21:06.290Z,25.40
2023-05-14T18:23:34.083Z,25.40
2023-05-14T18:26:02.407Z,25.40
2023-05-14T18:28:30.165Z,25.40
2023-05-14T18:30:57.986Z,25.40
2023-05-14T18:33:27.183Z,25.40
2023-05-14T18:35:54.961Z,25.40
2023-05-14T18:38:22.730Z,25.30
2023-05-14T18:40:50.506Z,25.30
2023-05-14T18:43:19.584Z,25.30
2023-05-14T18:45:48.198Z,25.30
2023-05-14T18:48:16.487Z,25.30
2023-05-14T18:50:45.604Z,25.30
2023-05-14T18:53:13.455Z,25.30
2023-05-14T18:55:41.285Z,25.30
2023-05-14T18:58:09.241Z,25.30
2023-05-14T19:00:36.982Z,25.30
2023-05-14T19:03:04.995Z,25.30
2023-05-14T19:05:32.924Z,25.30
2023-05-14T19:08:02.046Z,25.30
2023-05-14T19:10:29.834Z,25.30
2023-05-14T19:12:57.638Z,25.30
2023-05-14T19:15:26.080Z,25.30
2023-05-14T19:17:54.320Z,25.30
2023-05-14T19:20:22.212Z,25.30
2023-05-14T19:22:49.980Z,25.30
2023-05-14T19:25:19.088Z,25.30
2023-05-14T19:27:50.842Z,25.30
2023-05-14T19:30:20.274Z,25.30
2023-05-14T19:32:48.068Z,25.30
2023-05-14T19:35:16.435Z,25.30
2023-05-14T19:37:44.248Z,25.30
2023-05-14T19:40:12.479Z,25.30
2023-05-14T19:42:41.582Z,25.20
2023-05-14T19:45:10.170Z,25.30
2023-05-14T19:47:38.202Z,25.20
2023-05-14T19:50:08.329Z,25.20
2023-05-14T19:52:36.115Z,25.20
2023-05-14T19:55:04.020Z,25.20
2023-05-14T19:57:31.800Z,25.20
2023-05-14T20:00:01.042Z,25.20
2023-05-14T20:02:29.137Z,25.20
2023-05-14T20:04:57.852Z,25.20
2023-05-14T20:07:25.874Z,25.20
2023-05-14T20:09:53.750Z,25.20
2023-05-14T20:12:21.778Z,25.20
2023-05-14T20:14:49.582Z,25.20
2023-05-14T20:17:18.788Z,25.20
2023-05-14T20:19:46.572Z,25.20
2023-05-14T20:22:14.980Z,25.20
2023-05-14T20:24:42.829Z,25.20
2023-05-14T20:27:11.824Z,25.20
2023-05-14T20:29:39.608Z,25.20
2023-05-14T20:32:08.351Z,25.20
2023-05-14T20:34:37.454Z,25.10
2023-05-14T20:37:06.639Z,25.10
2023-05-14T20:39:34.418Z,25.10
2023-05-14T20:42:02.281Z,25.10
2023-05-14T20:44:30.054Z,25.10
2023-05-14T20:46:57.938Z,25.10
2023-05-14T20:49:25.769Z,25.10
2023-05-14T20:51:55.113Z,25.10
2023-05-14T20:54:22.920Z,25.10
2023-05-14T20:56:50.937Z,25.10
2023-05-14T20:59:19.287Z,25.10
2023-05-14T21:01:47.329Z,25.10
2023-05-14T21:04:15.818Z,25.10
2023-05-14T21:06:43.794Z,25.10
2023-05-14T21:09:12.919Z,25.10
2023-05-14T21:11:40.713Z,25.10
2023-05-14T21:14:08.601Z,25.10
2023-05-14T21:16:36.562Z,25.10
2023-05-14T21:19:04.435Z,25.10
2023-05-14T21:21:32.242Z,25.00
2023-05-14T21:24:00.085Z,25.00
2023-05-14T21:26:31.947Z,25.00
2023-05-14T21:29:00.125Z,25.00
2023-05-14T21:31:28.038Z,25.00
2023-05-14T21:33:55.880Z,25.00
2023-05-14T21:36:24.001Z,25.00
2023-05-14T21:38:53.447Z,25.00
2023-05-14T21:41:21.657Z,25.00
2023-05-14T21:43:50.813Z,25.00
2023-05-14T21:46:18.979Z,25.00
2023-05-14T21:48:46.875Z,25.00
2023-05-14T21:51:14.862Z,25.00
2023-05-14T21:53:42.674Z,25.00
2023-05-14T21:56:10.460Z,25.00
2023-05-14T21:58:38.278Z,25.00
2023-05-14T22:01:08.887Z,25.00
2023-05-14T22:03:36.766Z,25.00
2023-05-14T22:06:05.296Z,25.00
2023-05-14T22:08:33.080Z,25.00
2023-05-14T22:11:00.910Z,25.00
2023-05-14T22:13:28.708Z,25.00
2023-05-14T22:16:09.258Z,25.00
2023-05-14T22:18:42.559Z,25.00
2023-05-14T22:21:10.556Z,25.00
2023-05-14T22:23:38.318Z,25.00
2023-05-14T22:26:06.358Z,25.00
2023-05-14T22:28:34.152Z,25.00
2023-05-14T22:31:02.027Z,25.00
2023-05-14T22:33:29.892Z,25.00
2023-05-14T22:35:59.063Z,25.00
2023-05-14T22:38:26.832Z,25.00
2023-05-14T22:40:54.606Z,25.00
2023-05-14T22:43:22.422Z,25.00
2023-05-14T22:45:50.265Z,25.00
2023-05-14T22:48:18.266Z,25.00
2023-05-14T22:50:46.072Z,25.00
2023-05-14T22:53:15.344Z,25.00
2023-05-14T22:55:43.193Z,25.00
2023-05-14T22:58:11.200Z,25.00
2023-05-14T23:00:39.029Z,25.00
2023-05-14T23:03:06.860Z,25.00
2023-05-14T23:05:34.699Z,24.90
2023-05-14T23:08:02.584Z,25.00
2023-05-14T23:10:31.713Z,25.00
2023-05-14T23:12:59.470Z,24.90
2023-05-14T23:15:27.815Z,24.90
2023-05-14T23:17:55.674Z,24.90
2023-05-14T23:20:23.445Z,24.90
2023-05-14T23:22:51.305Z,24.90
2023-05-14T23:25:19.112Z,24.90
2023-05-14T23:27:49.897Z,24.90
2023-05-14T23:30:17.788Z,24.90
2023-05-14T23:32:45.632Z,24.90
2023-05-14T23:35:13.441Z,24.90
2023-05-14T23:37:46.933Z,24.90
2023-05-14T23:40:15.504Z,24.90
2023-05-14T23:42:43.814Z,24.90
2023-05-14T23:45:13.945Z,24.90
2023-05-14T23:47:42.069Z,24.90
2023-05-14T23:50:10.205Z,24.90
2023-05-14T23:52:37.974Z,24.90
2023-05-14T23:55:06.502Z,24.90
2023-05-14T23:57:34.335Z,24.90
